sensor_id;sensor_type;location;lat;lon;timestamp;pressure;altitude;pressure_sealevel;temperature;humidity
66945;BME280;53853;51.982;5.928;2024-02-14T00:01:20;101269.19;;;9.73;84.51
66945;BME280;53853;51.982;5.928;2024-02-14T00:03:50;101254.22;;;9.72;84.81
66945;BME280;53853;51.982;5.928;2024-02-14T00:06:20;101253.94;;;9.75;85.03
66945;BME280;53853;51.982;5.928;2024-02-14T00:08:53;101248.50;;;9.77;85.00
66945;BME280;53853;51.982;5.928;2024-02-14T00:11:23;101243.00;;;9.78;84.76
66945;BME280;53853;51.982;5.928;2024-02-14T00:13:53;101240.63;;;9.75;84.88
66945;BME280;53853;51.982;5.928;2024-02-14T00:16:23;101241.59;;;9.74;85.03
66945;BME280;53853;51.982;5.928;2024-02-14T00:18:53;101241.47;;;9.76;84.92
66945;BME280;53853;51.982;5.928;2024-02-14T00:21:23;101232.66;;;9.75;85.01
66945;BME280;53853;51.982;5.928;2024-02-14T00:23:56;101243.31;;;9.75;85.12
66945;BME280;53853;51.982;5.928;2024-02-14T00:26:26;101239.91;;;9.73;85.05
66945;BME280;53853;51.982;5.928;2024-02-14T00:28:56;101235.72;;;9.71;85.32
66945;BME280;53853;51.982;5.928;2024-02-14T00:31:26;101227.72;;;9.71;85.68
66945;BME280;53853;51.982;5.928;2024-02-14T00:33:56;101222.28;;;9.72;85.79
66945;BME280;53853;51.982;5.928;2024-02-14T00:36:26;101221.41;;;9.72;85.85
66945;BME280;53853;51.982;5.928;2024-02-14T00:38:58;101218.88;;;9.70;85.86
66945;BME280;53853;51.982;5.928;2024-02-14T00:41:28;101213.28;;;9.73;86.43
66945;BME280;53853;51.982;5.928;2024-02-14T00:43:58;101211.63;;;9.72;86.12
66945;BME280;53853;51.982;5.928;2024-02-14T00:46:28;101214.41;;;9.71;86.41
66945;BME280;53853;51.982;5.928;2024-02-14T00:48:58;101208.84;;;9.74;86.66
66945;BME280;53853;51.982;5.928;2024-02-14T00:51:28;101210.75;;;9.72;86.85
66945;BME280;53853;51.982;5.928;2024-02-14T00:54:00;101206.31;;;9.72;86.83
66945;BME280;53853;51.982;5.928;2024-02-14T00:56:30;101213.56;;;9.70;87.07
66945;BME280;53853;51.982;5.928;2024-02-14T00:59:00;101215.25;;;9.71;87.28
66945;BME280;53853;51.982;5.928;2024-02-14T01:01:30;101216.69;;;9.75;87.41
66945;BME280;53853;51.982;5.928;2024-02-14T01:04:00;101212.19;;;9.76;87.54
66945;BME280;53853;51.982;5.928;2024-02-14T01:06:30;101211.06;;;9.78;87.70
66945;BME280;53853;51.982;5.928;2024-02-14T01:09:03;101206.59;;;9.79;87.58
66945;BME280;53853;51.982;5.928;2024-02-14T01:11:33;101200.16;;;9.82;87.58
66945;BME280;53853;51.982;5.928;2024-02-14T01:14:03;101200.88;;;9.84;87.54
66945;BME280;53853;51.982;5.928;2024-02-14T01:16:33;101189.22;;;9.85;87.59
66945;BME280;53853;51.982;5.928;2024-02-14T01:19:03;101201.56;;;9.86;87.76
66945;BME280;53853;51.982;5.928;2024-02-14T01:21:32;101199.88;;;9.85;87.67
66945;BME280;53853;51.982;5.928;2024-02-14T01:24:05;101188.13;;;9.87;87.61
66945;BME280;53853;51.982;5.928;2024-02-14T01:26:35;101195.97;;;9.89;87.86
66945;BME280;53853;51.982;5.928;2024-02-14T01:29:05;101187.03;;;9.90;87.94
66945;BME280;53853;51.982;5.928;2024-02-14T01:31:36;101190.38;;;9.92;87.56
66945;BME280;53853;51.982;5.928;2024-02-14T01:34:06;101187.44;;;9.95;87.61
66945;BME280;53853;51.982;5.928;2024-02-14T01:36:36;101190.09;;;9.95;87.60
66945;BME280;53853;51.982;5.928;2024-02-14T01:39:10;101181.84;;;9.98;87.75
66945;BME280;53853;51.982;5.928;2024-02-14T01:41:45;101191.34;;;10.01;87.83
66945;BME280;53853;51.982;5.928;2024-02-14T01:44:15;101178.91;;;10.01;87.74
66945;BME280;53853;51.982;5.928;2024-02-14T01:46:45;101182.41;;;10.02;87.79
66945;BME280;53853;51.982;5.928;2024-02-14T01:49:16;101183.22;;;10.02;87.97
66945;BME280;53853;51.982;5.928;2024-02-14T01:51:46;101180.16;;;9.97;87.83
66945;BME280;53853;51.982;5.928;2024-02-14T01:54:19;101178.03;;;10.01;88.23
66945;BME280;53853;51.982;5.928;2024-02-14T01:56:49;101185.06;;;10.02;88.37
66945;BME280;53853;51.982;5.928;2024-02-14T01:59:19;101180.72;;;10.01;88.15
66945;BME280;53853;51.982;5.928;2024-02-14T02:01:49;101186.16;;;9.99;88.12
66945;BME280;53853;51.982;5.928;2024-02-14T02:04:19;101183.81;;;9.96;88.48
66945;BME280;53853;51.982;5.928;2024-02-14T02:06:49;101178.91;;;9.91;88.45
66945;BME280;53853;51.982;5.928;2024-02-14T02:09:22;101186.31;;;9.97;88.68
66945;BME280;53853;51.982;5.928;2024-02-14T02:11:53;101174.13;;;9.95;88.64
66945;BME280;53853;51.982;5.928;2024-02-14T02:14:23;101172.16;;;9.97;88.90
66945;BME280;53853;51.982;5.928;2024-02-14T02:16:53;101171.31;;;9.96;89.14
66945;BME280;53853;51.982;5.928;2024-02-14T02:19:23;101175.53;;;9.99;89.17
66945;BME280;53853;51.982;5.928;2024-02-14T02:21:53;101168.66;;;9.96;89.31
66945;BME280;53853;51.982;5.928;2024-02-14T02:24:26;101176.78;;;9.95;89.36
66945;BME280;53853;51.982;5.928;2024-02-14T02:26:56;101168.53;;;9.98;89.86
66945;BME280;53853;51.982;5.928;2024-02-14T02:29:26;101171.31;;;9.96;89.63
66945;BME280;53853;51.982;5.928;2024-02-14T02:31:56;101182.25;;;10.03;90.17
66945;BME280;53853;51.982;5.928;2024-02-14T02:34:26;101178.91;;;10.01;90.01
66945;BME280;53853;51.982;5.928;2024-02-14T02:36:55;101181.56;;;10.01;90.20
66945;BME280;53853;51.982;5.928;2024-02-14T02:39:28;101176.38;;;10.00;90.36
66945;BME280;53853;51.982;5.928;2024-02-14T02:41:58;101182.53;;;10.00;90.62
66945;BME280;53853;51.982;5.928;2024-02-14T02:44:27;101180.84;;;9.99;90.93
66945;BME280;53853;51.982;5.928;2024-02-14T02:46:58;101180.56;;;10.02;90.97
66945;BME280;53853;51.982;5.928;2024-02-14T02:49:27;101179.47;;;10.05;91.03
66945;BME280;53853;51.982;5.928;2024-02-14T02:51:57;101177.63;;;10.05;91.22
66945;BME280;53853;51.982;5.928;2024-02-14T02:54:30;101189.00;;;10.07;91.25
66945;BME280;53853;51.982;5.928;2024-02-14T02:56:59;101182.00;;;10.06;91.25
66945;BME280;53853;51.982;5.928;2024-02-14T02:59:30;101184.22;;;10.01;91.34
66945;BME280;53853;51.982;5.928;2024-02-14T03:01:59;101183.97;;;10.04;91.71
66945;BME280;53853;51.982;5.928;2024-02-14T03:04:29;101185.63;;;10.05;91.62
66945;BME280;53853;51.982;5.928;2024-02-14T03:07:00;101187.88;;;10.10;92.12
66945;BME280;53853;51.982;5.928;2024-02-14T03:09:36;101191.41;;;10.10;91.98
66945;BME280;53853;51.982;5.928;2024-02-14T03:12:06;101180.03;;;10.08;91.84
66945;BME280;53853;51.982;5.928;2024-02-14T03:14:36;101185.63;;;10.05;91.99
66945;BME280;53853;51.982;5.928;2024-02-14T03:17:06;101195.31;;;10.06;92.30
66945;BME280;53853;51.982;5.928;2024-02-14T03:19:36;101190.94;;;10.05;92.45
66945;BME280;53853;51.982;5.928;2024-02-14T03:22:07;101192.50;;;10.08;92.61
66945;BME280;53853;51.982;5.928;2024-02-14T03:24:39;101199.13;;;10.13;92.67
66945;BME280;53853;51.982;5.928;2024-02-14T03:27:10;101193.78;;;10.13;92.55
66945;BME280;53853;51.982;5.928;2024-02-14T03:29:40;101192.78;;;10.14;92.46
66945;BME280;53853;51.982;5.928;2024-02-14T03:32:10;101198.81;;;10.16;92.62
66945;BME280;53853;51.982;5.928;2024-02-14T03:34:40;101202.47;;;10.15;92.77
66945;BME280;53853;51.982;5.928;2024-02-14T03:37:11;101192.09;;;10.12;92.87
66945;BME280;53853;51.982;5.928;2024-02-14T03:39:44;101200.91;;;10.13;93.09
66945;BME280;53853;51.982;5.928;2024-02-14T03:42:14;101203.44;;;10.14;93.22
66945;BME280;53853;51.982;5.928;2024-02-14T03:44:44;101206.78;;;10.16;93.63
66945;BME280;53853;51.982;5.928;2024-02-14T03:47:14;101202.47;;;10.15;93.72
66945;BME280;53853;51.982;5.928;2024-02-14T03:49:44;101201.63;;;10.15;93.68
66945;BME280;53853;51.982;5.928;2024-02-14T03:52:14;101198.38;;;10.11;93.98
66945;BME280;53853;51.982;5.928;2024-02-14T03:54:46;101203.16;;;10.18;94.48
66945;BME280;53853;51.982;5.928;2024-02-14T03:57:17;101209.91;;;10.22;94.39
66945;BME280;53853;51.982;5.928;2024-02-14T03:59:47;101202.63;;;10.24;94.44
66945;BME280;53853;51.982;5.928;2024-02-14T04:02:17;101205.00;;;10.27;94.14
66945;BME280;53853;51.982;5.928;2024-02-14T04:04:47;101215.53;;;10.28;93.92
66945;BME280;53853;51.982;5.928;2024-02-14T04:07:17;101212.72;;;10.30;94.01
66945;BME280;53853;51.982;5.928;2024-02-14T04:09:51;101212.84;;;10.28;93.83
66945;BME280;53853;51.982;5.928;2024-02-14T04:12:21;101212.56;;;10.31;94.03
66945;BME280;53853;51.982;5.928;2024-02-14T04:14:51;101216.66;;;10.36;94.09
66945;BME280;53853;51.982;5.928;2024-02-14T04:17:21;101211.19;;;10.37;93.95
66945;BME280;53853;51.982;5.928;2024-02-14T04:19:50;101220.47;;;10.33;93.76
66945;BME280;53853;51.982;5.928;2024-02-14T04:22:20;101215.00;;;10.35;93.85
66945;BME280;53853;51.982;5.928;2024-02-14T04:24:53;101218.50;;;10.35;93.73
66945;BME280;53853;51.982;5.928;2024-02-14T04:27:23;101218.50;;;10.35;93.33
66945;BME280;53853;51.982;5.928;2024-02-14T04:29:53;101216.66;;;10.36;93.79
66945;BME280;53853;51.982;5.928;2024-02-14T04:32:23;101229.84;;;10.37;93.46
66945;BME280;53853;51.982;5.928;2024-02-14T04:34:51;101229.16;;;10.35;93.41
66945;BME280;53853;51.982;5.928;2024-02-14T04:37:21;101232.22;;;10.40;93.54
66945;BME280;53853;51.982;5.928;2024-02-14T04:39:53;101232.38;;;10.39;93.47
66945;BME280;53853;51.982;5.928;2024-02-14T04:42:23;101237.16;;;10.35;93.51
66945;BME280;53853;51.982;5.928;2024-02-14T04:44:53;101232.22;;;10.40;93.71
66945;BME280;53853;51.982;5.928;2024-02-14T04:47:22;101238.69;;;10.38;93.49
66945;BME280;53853;51.982;5.928;2024-02-14T04:49:52;101233.94;;;10.41;93.93
66945;BME280;53853;51.982;5.928;2024-02-14T04:52:22;101244.72;;;10.40;93.76
66945;BME280;53853;51.982;5.928;2024-02-14T04:54:54;101236.44;;;10.43;94.19
66945;BME280;53853;51.982;5.928;2024-02-14T04:57:24;101251.88;;;10.49;94.37
66945;BME280;53853;51.982;5.928;2024-02-14T04:59:54;101248.41;;;10.48;94.36
66945;BME280;53853;51.982;5.928;2024-02-14T05:02:24;101251.34;;;10.45;94.31
66945;BME280;53853;51.982;5.928;2024-02-14T05:04:54;101255.53;;;10.48;94.61
66945;BME280;53853;51.982;5.928;2024-02-14T05:07:25;101257.34;;;10.47;94.38
66945;BME280;53853;51.982;5.928;2024-02-14T05:09:57;101259.19;;;10.47;94.33
66945;BME280;53853;51.982;5.928;2024-02-14T05:12:27;101253.88;;;10.47;94.40
66945;BME280;53853;51.982;5.928;2024-02-14T05:14:57;101267.59;;;10.42;94.45
66945;BME280;53853;51.982;5.928;2024-02-14T05:17:27;101271.94;;;10.43;94.43
66945;BME280;53853;51.982;5.928;2024-02-14T05:19:57;101272.50;;;10.47;94.74
66945;BME280;53853;51.982;5.928;2024-02-14T05:22:26;101267.75;;;10.50;94.53
66945;BME280;53853;51.982;5.928;2024-02-14T05:24:59;101271.25;;;10.51;94.54
66945;BME280;53853;51.982;5.928;2024-02-14T05:27:29;101273.06;;;10.50;94.49
66945;BME280;53853;51.982;5.928;2024-02-14T05:29:58;101273.22;;;10.49;94.50
66945;BME280;53853;51.982;5.928;2024-02-14T05:32:32;101275.47;;;10.54;94.71
66945;BME280;53853;51.982;5.928;2024-02-14T05:35:02;101269.13;;;10.55;94.85
66945;BME280;53853;51.982;5.928;2024-02-14T05:37:33;101279.50;;;10.58;94.91
66945;BME280;53853;51.982;5.928;2024-02-14T05:40:07;101279.50;;;10.58;94.70
66945;BME280;53853;51.982;5.928;2024-02-14T05:42:37;101284.84;;;10.58;94.91
66945;BME280;53853;51.982;5.928;2024-02-14T05:45:08;101288.38;;;10.58;94.87
66945;BME280;53853;51.982;5.928;2024-02-14T05:47:39;101283.88;;;10.59;94.81
66945;BME280;53853;51.982;5.928;2024-02-14T05:50:09;101292.28;;;10.64;95.16
66945;BME280;53853;51.982;5.928;2024-02-14T05:52:40;101286.69;;;10.67;95.10
66945;BME280;53853;51.982;5.928;2024-02-14T05:55:12;101295.09;;;10.72;95.07
66945;BME280;53853;51.982;5.928;2024-02-14T05:57:43;101296.66;;;10.75;94.87
66945;BME280;53853;51.982;5.928;2024-02-14T06:00:13;101296.50;;;10.76;94.91
66945;BME280;53853;51.982;5.928;2024-02-14T06:02:45;101297.19;;;10.78;94.83
66945;BME280;53853;51.982;5.928;2024-02-14T06:05:16;101297.19;;;10.78;94.82
66945;BME280;53853;51.982;5.928;2024-02-14T06:07:47;101290.91;;;10.79;94.81
66945;BME280;53853;51.982;5.928;2024-02-14T06:10:19;101292.47;;;10.82;95.15
66945;BME280;53853;51.982;5.928;2024-02-14T06:12:52;101298.47;;;10.84;94.93
66945;BME280;53853;51.982;5.928;2024-02-14T06:15:22;101299.31;;;10.84;95.00
66945;BME280;53853;51.982;5.928;2024-02-14T06:17:52;101307.16;;;10.86;95.06
66945;BME280;53853;51.982;5.928;2024-02-14T06:20:21;101302.56;;;10.88;95.11
66945;BME280;53853;51.982;5.928;2024-02-14T06:22:51;101305.09;;;10.90;94.98
66945;BME280;53853;51.982;5.928;2024-02-14T06:25:24;101311.94;;;10.92;94.93
66945;BME280;53853;51.982;5.928;2024-02-14T06:27:53;101313.78;;;10.92;95.04
66945;BME280;53853;51.982;5.928;2024-02-14T06:30:23;101311.81;;;10.94;94.95
66945;BME280;53853;51.982;5.928;2024-02-14T06:32:53;101319.13;;;10.92;94.94
66945;BME280;53853;51.982;5.928;2024-02-14T06:35:27;101325.28;;;10.92;95.04
66945;BME280;53853;51.982;5.928;2024-02-14T06:37:57;101337.50;;;10.95;94.82
66945;BME280;53853;51.982;5.928;2024-02-14T06:40:29;101335.94;;;10.92;94.84
66945;BME280;53853;51.982;5.928;2024-02-14T06:42:59;101337.78;;;10.92;95.02
66945;BME280;53853;51.982;5.928;2024-02-14T06:45:29;101343.13;;;10.92;95.30
66945;BME280;53853;51.982;5.928;2024-02-14T06:47:59;101337.78;;;10.92;95.12
66945;BME280;53853;51.982;5.928;2024-02-14T06:50:28;101342.13;;;10.93;95.28
66945;BME280;53853;51.982;5.928;2024-02-14T06:52:58;101341.28;;;10.92;95.40
66945;BME280;53853;51.982;5.928;2024-02-14T06:55:31;101347.44;;;10.93;95.49
66945;BME280;53853;51.982;5.928;2024-02-14T06:58:01;101338.63;;;10.92;95.59
66945;BME280;53853;51.982;5.928;2024-02-14T07:00:31;101350.25;;;10.91;95.62
66945;BME280;53853;51.982;5.928;2024-02-14T07:03:01;101346.75;;;10.91;95.75
66945;BME280;53853;51.982;5.928;2024-02-14T07:05:31;101348.44;;;10.92;95.93
66945;BME280;53853;51.982;5.928;2024-02-14T07:08:01;101353.50;;;10.95;96.05
66945;BME280;53853;51.982;5.928;2024-02-14T07:10:34;101349.84;;;10.96;96.18
66945;BME280;53853;51.982;5.928;2024-02-14T07:13:04;101340.16;;;10.95;95.94
66945;BME280;53853;51.982;5.928;2024-02-14T07:15:34;101348.16;;;10.95;96.05
66945;BME280;53853;51.982;5.928;2024-02-14T07:18:04;101352.63;;;10.94;96.24
66945;BME280;53853;51.982;5.928;2024-02-14T07:20:35;101349.00;;;10.95;96.32
66945;BME280;53853;51.982;5.928;2024-02-14T07:23:05;101347.88;;;10.98;96.52
66945;BME280;53853;51.982;5.928;2024-02-14T07:25:37;101347.63;;;11.01;96.70
66945;BME280;53853;51.982;5.928;2024-02-14T07:28:07;101358.13;;;11.02;96.70
66945;BME280;53853;51.982;5.928;2024-02-14T07:30:37;101356.31;;;11.03;96.50
66945;BME280;53853;51.982;5.928;2024-02-14T07:33:07;101349.84;;;11.05;96.45
66945;BME280;53853;51.982;5.928;2024-02-14T07:35:37;101360.66;;;11.04;96.31
66945;BME280;53853;51.982;5.928;2024-02-14T07:38:07;101349.84;;;11.05;96.42
66945;BME280;53853;51.982;5.928;2024-02-14T07:40:39;101354.34;;;11.05;96.46
66945;BME280;53853;51.982;5.928;2024-02-14T07:43:09;101363.06;;;11.07;96.58
66945;BME280;53853;51.982;5.928;2024-02-14T07:45:39;101362.19;;;11.06;96.47
66945;BME280;53853;51.982;5.928;2024-02-14T07:48:09;101363.88;;;11.08;96.49
66945;BME280;53853;51.982;5.928;2024-02-14T07:50:39;101365.59;;;11.09;96.59
66945;BME280;53853;51.982;5.928;2024-02-14T07:53:09;101366.97;;;11.13;96.53
66945;BME280;53853;51.982;5.928;2024-02-14T07:55:41;101369.63;;;11.13;96.59
66945;BME280;53853;51.982;5.928;2024-02-14T07:58:11;101366.13;;;11.12;96.40
66945;BME280;53853;51.982;5.928;2024-02-14T08:00:41;101365.88;;;11.15;96.59
66945;BME280;53853;51.982;5.928;2024-02-14T08:03:10;101370.47;;;11.13;96.43
66945;BME280;53853;51.982;5.928;2024-02-14T08:05:41;101366.56;;;11.17;96.59
66945;BME280;53853;51.982;5.928;2024-02-14T08:08:11;101375.09;;;11.21;96.78
66945;BME280;53853;51.982;5.928;2024-02-14T08:10:44;101372.16;;;11.24;96.78
66945;BME280;53853;51.982;5.928;2024-02-14T08:13:14;101378.09;;;11.28;96.82
66945;BME280;53853;51.982;5.928;2024-02-14T08:15:44;101376.78;;;11.32;96.76
66945;BME280;53853;51.982;5.928;2024-02-14T08:18:14;101380.88;;;11.36;96.95
66945;BME280;53853;51.982;5.928;2024-02-14T08:20:44;101384.25;;;11.38;96.94
66945;BME280;53853;51.982;5.928;2024-02-14T08:23:14;101391.00;;;11.42;96.97
66945;BME280;53853;51.982;5.928;2024-02-14T08:25:46;101382.84;;;11.44;96.78
66945;BME280;53853;51.982;5.928;2024-02-14T08:28:16;101380.03;;;11.45;96.71
66945;BME280;53853;51.982;5.928;2024-02-14T08:30:47;101387.03;;;11.46;96.44
66945;BME280;53853;51.982;5.928;2024-02-14T08:33:18;101386.34;;;11.44;95.98
66945;BME280;53853;51.982;5.928;2024-02-14T08:35:48;101387.31;;;11.43;95.93
66945;BME280;53853;51.982;5.928;2024-02-14T08:38:17;101385.50;;;11.44;95.95
66945;BME280;53853;51.982;5.928;2024-02-14T08:40:50;101391.00;;;11.42;95.66
66945;BME280;53853;51.982;5.928;2024-02-14T08:43:20;101382.97;;;11.42;96.05
66945;BME280;53853;51.982;5.928;2024-02-14T08:45:51;101391.81;;;11.42;95.87
66945;BME280;53853;51.982;5.928;2024-02-14T08:48:21;101397.03;;;11.44;95.75
66945;BME280;53853;51.982;5.928;2024-02-14T08:50:52;101388.47;;;11.40;95.61
66945;BME280;53853;51.982;5.928;2024-02-14T08:53:21;101387.75;;;11.38;95.47
66945;BME280;53853;51.982;5.928;2024-02-14T08:55:54;101398.28;;;11.40;95.73
66945;BME280;53853;51.982;5.928;2024-02-14T08:58:24;101391.97;;;11.41;95.79
66945;BME280;53853;51.982;5.928;2024-02-14T09:00:54;101399.13;;;11.40;95.61
66945;BME280;53853;51.982;5.928;2024-02-14T09:03:24;101390.84;;;11.44;95.92
66945;BME280;53853;51.982;5.928;2024-02-14T09:05:54;101403.19;;;11.45;95.99
66945;BME280;53853;51.982;5.928;2024-02-14T09:08:24;101397.72;;;11.46;96.01
66945;BME280;53853;51.982;5.928;2024-02-14T09:10:57;101397.44;;;11.49;95.92
66945;BME280;53853;51.982;5.928;2024-02-14T09:13:27;101402.63;;;11.51;96.06
66945;BME280;53853;51.982;5.928;2024-02-14T09:15:57;101397.84;;;11.54;96.34
66945;BME280;53853;51.982;5.928;2024-02-14T09:18:26;101404.59;;;11.58;96.10
66945;BME280;53853;51.982;5.928;2024-02-14T09:20:58;101402.47;;;11.62;96.40
66945;BME280;53853;51.982;5.928;2024-02-14T09:23:28;101410.19;;;11.65;96.38
66945;BME280;53853;51.982;5.928;2024-02-14T09:26:01;101409.06;;;11.68;95.94
66945;BME280;53853;51.982;5.928;2024-02-14T09:28:31;101414.41;;;11.68;96.02
66945;BME280;53853;51.982;5.928;2024-02-14T09:31:02;101415.78;;;11.72;96.40
66945;BME280;53853;51.982;5.928;2024-02-14T09:33:32;101416.50;;;11.74;96.28
66945;BME280;53853;51.982;5.928;2024-02-14T09:36:03;101408.50;;;11.74;96.08
66945;BME280;53853;51.982;5.928;2024-02-14T09:38:33;101422.00;;;11.72;95.67
66945;BME280;53853;51.982;5.928;2024-02-14T09:41:10;101426.47;;;11.72;95.29
66945;BME280;53853;51.982;5.928;2024-02-14T09:43:44;101424.94;;;11.69;95.59
66945;BME280;53853;51.982;5.928;2024-02-14T09:46:15;101427.75;;;11.68;95.70
66945;BME280;53853;51.982;5.928;2024-02-14T09:48:45;101434.78;;;11.69;95.50
66945;BME280;53853;51.982;5.928;2024-02-14T09:51:15;101439.41;;;11.67;95.54
66945;BME280;53853;51.982;5.928;2024-02-14T09:53:45;101431.13;;;11.70;95.52
66945;BME280;53853;51.982;5.928;2024-02-14T09:56:19;101428.59;;;11.68;95.32
66945;BME280;53853;51.982;5.928;2024-02-14T09:58:50;101429.88;;;11.74;95.65
66945;BME280;53853;51.982;5.928;2024-02-14T10:01:25;101429.72;;;11.75;95.64
66945;BME280;53853;51.982;5.928;2024-02-14T10:03:56;101429.28;;;11.80;95.77
66945;BME280;53853;51.982;5.928;2024-02-14T10:06:26;101434.50;;;11.82;95.91
66945;BME280;53853;51.982;5.928;2024-02-14T10:08:55;101438.53;;;11.86;95.59
66945;BME280;53853;51.982;5.928;2024-02-14T10:11:28;101438.25;;;11.89;95.72
66945;BME280;53853;51.982;5.928;2024-02-14T10:13:59;101430.94;;;11.91;95.50
66945;BME280;53853;51.982;5.928;2024-02-14T10:16:30;101447.56;;;11.94;95.44
66945;BME280;53853;51.982;5.928;2024-02-14T10:19:00;101443.91;;;11.95;95.23
66945;BME280;53853;51.982;5.928;2024-02-14T10:21:30;101441.94;;;11.98;95.23
66945;BME280;53853;51.982;5.928;2024-02-14T10:24:01;101446.28;;;11.99;95.18
66945;BME280;53853;51.982;5.928;2024-02-14T10:26:33;101447.97;;;12.00;94.33
66945;BME280;53853;51.982;5.928;2024-02-14T10:29:03;101438.84;;;12.02;94.67
66945;BME280;53853;51.982;5.928;2024-02-14T10:31:37;101456.25;;;12.06;94.93
66945;BME280;53853;51.982;5.928;2024-02-14T10:34:07;101454.25;;;12.08;94.94
66945;BME280;53853;51.982;5.928;2024-02-14T10:36:37;101459.75;;;12.07;94.64
66945;BME280;53853;51.982;5.928;2024-02-14T10:39:10;101457.06;;;12.07;94.85
66945;BME280;53853;51.982;5.928;2024-02-14T10:41:45;101452.31;;;12.10;94.98
66945;BME280;53853;51.982;5.928;2024-02-14T10:44:17;101453.84;;;12.13;95.12
66945;BME280;53853;51.982;5.928;2024-02-14T10:46:49;101458.75;;;12.18;95.14
66945;BME280;53853;51.982;5.928;2024-02-14T10:49:22;101455.94;;;12.19;95.16
66945;BME280;53853;51.982;5.928;2024-02-14T10:51:57;101454.66;;;12.23;95.08
66945;BME280;53853;51.982;5.928;2024-02-14T10:54:31;101456.31;;;12.24;94.85
66945;BME280;53853;51.982;5.928;2024-02-14T10:57:09;101463.50;;;12.24;94.34
66945;BME280;53853;51.982;5.928;2024-02-14T10:59:41;101465.06;;;12.26;94.59
66945;BME280;53853;51.982;5.928;2024-02-14T11:02:13;101456.75;;;12.29;94.69
66945;BME280;53853;51.982;5.928;2024-02-14T11:04:43;101466.88;;;12.36;94.80
66945;BME280;53853;51.982;5.928;2024-02-14T11:07:17;101463.03;;;12.38;94.48
66945;BME280;53853;51.982;5.928;2024-02-14T11:10:00;101455.88;;;12.39;94.33
66945;BME280;53853;51.982;5.928;2024-02-14T11:12:36;101454.88;;;12.40;94.31
66945;BME280;53853;51.982;5.928;2024-02-14T11:15:16;101450.22;;;12.42;94.33
66945;BME280;53853;51.982;5.928;2024-02-14T11:17:46;101447.97;;;12.47;94.49
66945;BME280;53853;51.982;5.928;2024-02-14T11:20:20;101451.03;;;12.52;94.72
66945;BME280;53853;51.982;5.928;2024-02-14T11:22:57;101454.09;;;12.57;94.08
66945;BME280;53853;51.982;5.928;2024-02-14T11:25:32;101446.22;;;12.56;93.94
66945;BME280;53853;51.982;5.928;2024-02-14T11:28:13;101442.44;;;12.58;94.12
66945;BME280;53853;51.982;5.928;2024-02-14T11:30:44;101449.28;;;12.61;94.05
66945;BME280;53853;51.982;5.928;2024-02-14T11:33:16;101447.34;;;12.63;94.27
66945;BME280;53853;51.982;5.928;2024-02-14T11:35:48;101446.16;;;12.65;94.08
66945;BME280;53853;51.982;5.928;2024-02-14T11:38:20;101446.88;;;12.67;94.05
66945;BME280;53853;51.982;5.928;2024-02-14T11:40:50;101441.38;;;12.69;93.95
66945;BME280;53853;51.982;5.928;2024-02-14T11:43:23;101427.44;;;12.65;93.42
66945;BME280;53853;51.982;5.928;2024-02-14T11:45:53;101437.03;;;12.68;93.84
66945;BME280;53853;51.982;5.928;2024-02-14T11:48:23;101435.91;;;12.71;94.07
66945;BME280;53853;51.982;5.928;2024-02-14T11:50:54;101435.75;;;12.72;94.06
66945;BME280;53853;51.982;5.928;2024-02-14T11:53:24;101439.94;;;12.75;94.14
66945;BME280;53853;51.982;5.928;2024-02-14T11:55:56;101442.47;;;12.76;93.78
66945;BME280;53853;51.982;5.928;2024-02-14T11:58:28;101441.63;;;12.76;93.42
66945;BME280;53853;51.982;5.928;2024-02-14T12:00:58;101441.78;;;12.74;93.39
66945;BME280;53853;51.982;5.928;2024-02-14T12:03:32;101433.59;;;12.76;93.29
66945;BME280;53853;51.982;5.928;2024-02-14T12:06:02;101429.38;;;12.73;93.43
66945;BME280;53853;51.982;5.928;2024-02-14T12:08:32;101433.06;;;12.72;93.38
66945;BME280;53853;51.982;5.928;2024-02-14T12:11:03;101438.56;;;12.71;92.96
66945;BME280;53853;51.982;5.928;2024-02-14T12:13:35;101435.75;;;12.72;93.52
66945;BME280;53853;51.982;5.928;2024-02-14T12:16:11;101435.59;;;12.74;93.21
66945;BME280;53853;51.982;5.928;2024-02-14T12:18:41;101435.59;;;12.74;93.24
66945;BME280;53853;51.982;5.928;2024-02-14T12:21:11;101418.53;;;12.75;93.44
66945;BME280;53853;51.982;5.928;2024-02-14T12:23:41;101424.59;;;12.77;93.33
66945;BME280;53853;51.982;5.928;2024-02-14T12:26:11;101422.59;;;12.79;93.44
66945;BME280;53853;51.982;5.928;2024-02-14T12:28:49;101419.63;;;12.82;93.67
66945;BME280;53853;51.982;5.928;2024-02-14T12:31:24;101422.00;;;12.85;93.82
66945;BME280;53853;51.982;5.928;2024-02-14T12:33:54;101431.41;;;12.89;93.88
66945;BME280;53853;51.982;5.928;2024-02-14T12:36:26;101424.09;;;12.91;93.97
66945;BME280;53853;51.982;5.928;2024-02-14T12:38:57;101425.75;;;12.92;93.94
66945;BME280;53853;51.982;5.928;2024-02-14T12:41:29;101440.97;;;12.92;93.54
66945;BME280;53853;51.982;5.928;2024-02-14T12:44:04;101431.97;;;12.93;93.63
66945;BME280;53853;51.982;5.928;2024-02-14T12:46:34;101417.56;;;12.94;93.84
66945;BME280;53853;51.982;5.928;2024-02-14T12:49:05;101416.75;;;12.93;93.81
66945;BME280;53853;51.982;5.928;2024-02-14T12:51:35;101431.09;;;12.92;93.61
66945;BME280;53853;51.982;5.928;2024-02-14T12:54:05;101428.56;;;12.91;93.69
66945;BME280;53853;51.982;5.928;2024-02-14T12:56:37;101428.44;;;12.92;93.84
66945;BME280;53853;51.982;5.928;2024-02-14T12:59:10;101432.25;;;12.90;93.52
66945;BME280;53853;51.982;5.928;2024-02-14T13:01:44;101421.00;;;12.86;93.37
66945;BME280;53853;51.982;5.928;2024-02-14T13:04:14;101424.84;;;12.83;93.70
66945;BME280;53853;51.982;5.928;2024-02-14T13:06:44;101415.13;;;12.82;93.82
66945;BME280;53853;51.982;5.928;2024-02-14T13:09:14;101411.47;;;12.83;94.16
66945;BME280;53853;51.982;5.928;2024-02-14T13:11:44;101416.81;;;12.83;94.07